CYHA

Quaqtaq Airport

Quaqtaq, Quebec, Canada
TAF CYHA 181438Z 1815/1822 22008KT P6SM FEW050 SCT100 TEMPO 1815/1822 4SM -SN BKN050 OVC100 RMK NXT FCST WILL BE ISSUED AT 191445Z
Issued Valid From Valid To
Jan-18 @ 14:38 UTC
(6 hours ago)
Jan-18 @ 15:00 UTC
(6 hours ago)
Jan-18 @ 22:00 UTC
(in an hour)
Jan-18 @ 15:00 to Jan-18 @ 22:00
TAF CYHA 181438Z 1815/1822 22008KT P6SM FEW050 SCT100
Wind Visibility Clouds
220° at 8 knots Greater than 6 miles
  • Few at 5,000' AGL
  • Scattered at 10,000' AGL
Temporary Jan-18 @ 15:00 to Jan-18 @ 22:00
TEMPO 1815/1822 4SM -SN BKN050 OVC100 RMK NXT FCST WILL BE ISSUED AT 191445Z
Visibility Clouds Conditions
4 miles
  • Broken at 5,000' AGL
  • Overcast at 10,000' AGL
  • Light Snow
TAF CYHA 181438Z 1815/1822 22008KT P6SM FEW050 SCT100 TEMPO 1815/1822 4SM -SN BKN050 OVC100 RMK NXT FCST WILL BE ISSUED AT 191445Z
Issued Jan-18 @ 14:38 UTC
(6 hours ago)
Valid From Jan-18 @ 15:00 UTC
(6 hours ago)
Valid To Jan-18 @ 22:00 UTC
(in an hour)
Jan-18 @ 15:00 - Jan-18 @ 22:00
Wind Visibility
220° at 8 knots Greater than 6 miles
Clouds
  • Few at 5,000' AGL
  • Scattered at 10,000' AGL
Temporary Jan-18 @ 15:00 - Jan-18 @ 22:00
Clouds
  • Broken at 5,000' AGL
  • Overcast at 10,000' AGL
Conditions
  • Light Snow